TVF539X LFPO-LTFM
Flight info
| Callsign | TVF539X |
|---|---|
| Flight time | 3h 3m |
| Altitude | 39000 |
| Route | BUBLI DCT LUVAL DCT BEGAR DCT TRA DCT GAMSA DCT GEDSO DCT VEKEN DCT GORPA DCT TIVNU DCT VEBAR DCT NISVA DCT DEDIN DCT AYTEK |
| Aircraft | B738/M-SDE2E3FGHIRWXY/LB1 |
Departure
| Time | 2026-05-07 17:36 |
|---|---|
| Airport | Paris-Orly Airport (LFPO) |
Arrival
| Time | 2026-05-07 20:39 |
|---|---|
| Airport | İstanbul Airport (LTFM) |
| Time | Latitude | Longitude | Altitude | Speed | Heading |
|---|---|---|---|---|---|
| 2026-05-07 17:12 | 48.72426 | 2.36634 | 285 ft | 0 kts | 143° |
| 2026-05-07 17:27 | 48.72431 | 2.36627 | 293 ft | 2 kts | 143° |
| 2026-05-07 17:27 | 48.72445 | 2.36612 | 290 ft | 3 kts | 143° |
| 2026-05-07 17:27 | 48.72460 | 2.36594 | 292 ft | 3 kts | 143° |
| 2026-05-07 17:28 | 48.72475 | 2.36581 | 290 ft | 2 kts | 180° |
| 2026-05-07 17:28 | 48.72486 | 2.36585 | 291 ft | 1 kts | 230° |
| 2026-05-07 17:28 | 48.72490 | 2.36593 | 289 ft | 0 kts | 253° |
| 2026-05-07 17:31 | 48.72482 | 2.36556 | 289 ft | 6 kts | 253° |
| 2026-05-07 17:31 | 48.72470 | 2.36490 | 291 ft | 6 kts | 254° |
| 2026-05-07 17:31 | 48.72458 | 2.36424 | 290 ft | 6 kts | 255° |
| 2026-05-07 17:31 | 48.72446 | 2.36360 | 290 ft | 6 kts | 254° |
| 2026-05-07 17:32 | 48.72425 | 2.36295 | 293 ft | 8 kts | 229° |
| 2026-05-07 17:32 | 48.72364 | 2.36272 | 289 ft | 11 kts | 164° |
| 2026-05-07 17:32 | 48.72291 | 2.36324 | 291 ft | 11 kts | 145° |
| 2026-05-07 17:32 | 48.72255 | 2.36380 | 289 ft | 11 kts | 126° |
| 2026-05-07 17:33 | 48.72205 | 2.36504 | 291 ft | 10 kts | 127° |
| 2026-05-07 17:33 | 48.72146 | 2.36547 | 291 ft | 9 kts | 162° |
| 2026-05-07 17:33 | 48.72090 | 2.36574 | 294 ft | 7 kts | 162° |
| 2026-05-07 17:33 | 48.72076 | 2.36600 | 293 ft | 2 kts | 76° |
| 2026-05-07 17:34 | 48.72077 | 2.36602 | 293 ft | 0 kts | 70° |
| 2026-05-07 17:35 | 48.72078 | 2.36609 | 292 ft | 4 kts | 70° |
| 2026-05-07 17:35 | 48.72132 | 2.36889 | 294 ft | 63 kts | 74° |
| 2026-05-07 17:35 | 48.72402 | 2.38356 | 293 ft | 150 kts | 74° |
| 2026-05-07 17:35 | 48.72722 | 2.40089 | 585 ft | 179 kts | 74° |
| 2026-05-07 17:36 | 48.72946 | 2.41315 | 1133 ft | 179 kts | 72° |
| 2026-05-07 17:36 | 48.73273 | 2.43158 | 1959 ft | 187 kts | 73° |
| 2026-05-07 17:36 | 48.73620 | 2.45059 | 2775 ft | 191 kts | 72° |
| 2026-05-07 17:36 | 48.73989 | 2.47056 | 3411 ft | 202 kts | 73° |
| 2026-05-07 17:37 | 48.74175 | 2.49210 | 3972 ft | 210 kts | 86° |
| 2026-05-07 17:37 | 48.74234 | 2.51520 | 4268 ft | 233 kts | 86° |
| 2026-05-07 17:37 | 48.74300 | 2.54043 | 4739 ft | 243 kts | 86° |
| 2026-05-07 17:37 | 48.74406 | 2.56635 | 5371 ft | 248 kts | 83° |
| 2026-05-07 17:38 | 48.74611 | 2.59244 | 6030 ft | 252 kts | 82° |
| 2026-05-07 17:38 | 48.74841 | 2.61970 | 6453 ft | 271 kts | 82° |
| 2026-05-07 17:38 | 48.75079 | 2.64848 | 7119 ft | 279 kts | 82° |
| 2026-05-07 17:38 | 48.75316 | 2.67765 | 7821 ft | 284 kts | 83° |
| 2026-05-07 17:39 | 48.75549 | 2.70720 | 8836 ft | 277 kts | 83° |
| 2026-05-07 17:39 | 48.75769 | 2.73563 | 9917 ft | 270 kts | 83° |
| 2026-05-07 17:39 | 48.75989 | 2.76433 | 10460 ft | 282 kts | 83° |
| 2026-05-07 17:39 | 48.76225 | 2.79514 | 10666 ft | 305 kts | 83° |
| 2026-05-07 17:40 | 48.76472 | 2.82760 | 11229 ft | 314 kts | 83° |
| 2026-05-07 17:40 | 48.76724 | 2.86068 | 11948 ft | 317 kts | 83° |
| 2026-05-07 17:40 | 48.76978 | 2.89410 | 12682 ft | 321 kts | 83° |
| 2026-05-07 17:40 | 48.77234 | 2.92797 | 13401 ft | 325 kts | 84° |
| 2026-05-07 17:41 | 48.77492 | 2.96222 | 14099 ft | 329 kts | 84° |
| 2026-05-07 17:41 | 48.77789 | 2.99686 | 14761 ft | 332 kts | 81° |
| 2026-05-07 17:41 | 48.78190 | 3.03156 | 15419 ft | 335 kts | 79° |
| 2026-05-07 17:41 | 48.78625 | 3.06643 | 16070 ft | 339 kts | 79° |
| 2026-05-07 17:42 | 48.79060 | 3.10127 | 16711 ft | 342 kts | 79° |
| 2026-05-07 17:42 | 48.79505 | 3.13744 | 17352 ft | 346 kts | 79° |
| 2026-05-07 17:42 | 48.79935 | 3.17309 | 17982 ft | 350 kts | 80° |
| 2026-05-07 17:42 | 48.80371 | 3.20969 | 18568 ft | 354 kts | 80° |
| 2026-05-07 17:43 | 48.80809 | 3.24665 | 19134 ft | 357 kts | 80° |
| 2026-05-07 17:43 | 48.81248 | 3.28392 | 19718 ft | 359 kts | 80° |
| 2026-05-07 17:43 | 48.81687 | 3.32136 | 20286 ft | 362 kts | 80° |
| 2026-05-07 17:43 | 48.82127 | 3.35917 | 20834 ft | 365 kts | 81° |
| 2026-05-07 17:44 | 48.82244 | 3.39772 | 21348 ft | 368 kts | 95° |
| 2026-05-07 17:44 | 48.82012 | 3.43632 | 21915 ft | 370 kts | 97° |
| 2026-05-07 17:44 | 48.81731 | 3.47534 | 22472 ft | 373 kts | 97° |
| 2026-05-07 17:44 | 48.81441 | 3.51470 | 22988 ft | 376 kts | 97° |
| 2026-05-07 17:45 | 48.81162 | 3.55392 | 23518 ft | 379 kts | 97° |
| 2026-05-07 17:45 | 48.80887 | 3.59392 | 23983 ft | 382 kts | 96° |
| 2026-05-07 17:45 | 48.80618 | 3.63407 | 24445 ft | 384 kts | 96° |
| 2026-05-07 17:45 | 48.80352 | 3.67444 | 24900 ft | 385 kts | 96° |
| 2026-05-07 17:46 | 48.80089 | 3.71456 | 25326 ft | 388 kts | 96° |
| 2026-05-07 17:46 | 48.79821 | 3.75545 | 25769 ft | 390 kts | 96° |
| 2026-05-07 17:46 | 48.79550 | 3.79653 | 26198 ft | 392 kts | 96° |
| 2026-05-07 17:46 | 48.79277 | 3.83780 | 26618 ft | 394 kts | 96° |
| 2026-05-07 17:47 | 48.79001 | 3.87928 | 27019 ft | 397 kts | 97° |
| 2026-05-07 17:47 | 48.78721 | 3.92107 | 27434 ft | 399 kts | 97° |
| 2026-05-07 17:47 | 48.78438 | 3.96303 | 27838 ft | 401 kts | 97° |
| 2026-05-07 17:47 | 48.78153 | 4.00521 | 28233 ft | 403 kts | 97° |
| 2026-05-07 17:48 | 48.77868 | 4.04714 | 28605 ft | 406 kts | 97° |
| 2026-05-07 17:48 | 48.77576 | 4.08981 | 28988 ft | 408 kts | 97° |
| 2026-05-07 17:48 | 48.77227 | 4.13263 | 29340 ft | 410 kts | 104° |
| 2026-05-07 17:48 | 48.76194 | 4.17274 | 29620 ft | 409 kts | 124° |
| 2026-05-07 17:49 | 48.74590 | 4.20843 | 30002 ft | 409 kts | 127° |
| 2026-05-07 17:49 | 48.72911 | 4.24361 | 30315 ft | 412 kts | 128° |
| 2026-05-07 17:49 | 48.71216 | 4.27869 | 30579 ft | 414 kts | 128° |
| 2026-05-07 17:49 | 48.69512 | 4.31407 | 30839 ft | 417 kts | 128° |
| 2026-05-07 17:50 | 48.67808 | 4.34970 | 31068 ft | 420 kts | 127° |
| 2026-05-07 17:50 | 48.66087 | 4.38589 | 31040 ft | 425 kts | 127° |
| 2026-05-07 17:50 | 48.62677 | 4.45796 | 31027 ft | 420 kts | 127° |
| 2026-05-07 17:51 | 48.59295 | 4.52949 | 31043 ft | 419 kts | 127° |
| 2026-05-07 17:51 | 48.55888 | 4.60132 | 31039 ft | 421 kts | 127° |
| 2026-05-07 17:52 | 48.52465 | 4.67329 | 31050 ft | 423 kts | 127° |
| 2026-05-07 17:52 | 48.49074 | 4.74438 | 31039 ft | 424 kts | 127° |
| 2026-05-07 17:53 | 48.45618 | 4.81667 | 31047 ft | 424 kts | 127° |
| 2026-05-07 17:53 | 48.42147 | 4.88907 | 31044 ft | 430 kts | 127° |
| 2026-05-07 17:54 | 48.38598 | 4.96286 | 31059 ft | 447 kts | 127° |
| 2026-05-07 17:54 | 48.34889 | 5.03986 | 31052 ft | 462 kts | 127° |
| 2026-05-07 17:55 | 48.31348 | 5.12228 | 31151 ft | 476 kts | 115° |
| 2026-05-07 17:55 | 48.30209 | 5.16870 | 31602 ft | 473 kts | 105° |
| 2026-05-07 17:55 | 48.29463 | 5.21661 | 32132 ft | 467 kts | 103° |
| 2026-05-07 17:56 | 48.28772 | 5.26408 | 32593 ft | 463 kts | 103° |
| 2026-05-07 17:56 | 48.28089 | 5.31124 | 32963 ft | 462 kts | 103° |
| 2026-05-07 17:56 | 48.27397 | 5.35846 | 33257 ft | 463 kts | 104° |
| 2026-05-07 17:56 | 48.26700 | 5.40507 | 33525 ft | 463 kts | 104° |
| 2026-05-07 17:57 | 48.25978 | 5.45251 | 33812 ft | 464 kts | 104° |
| 2026-05-07 17:57 | 48.25498 | 5.48374 | 34010 ft | 464 kts | 104° |
| 2026-05-07 17:57 | 48.24523 | 5.54668 | 34354 ft | 463 kts | 104° |
| 2026-05-07 17:57 | 48.23787 | 5.59386 | 34574 ft | 464 kts | 104° |
| 2026-05-07 17:58 | 48.23050 | 5.64100 | 34781 ft | 465 kts | 104° |
| 2026-05-07 17:58 | 48.22313 | 5.68808 | 35005 ft | 464 kts | 104° |
| 2026-05-07 17:58 | 48.21583 | 5.73459 | 35363 ft | 461 kts | 105° |
| 2026-05-07 17:58 | 48.20841 | 5.78176 | 35745 ft | 456 kts | 105° |
| 2026-05-07 17:59 | 48.20122 | 5.82730 | 36135 ft | 452 kts | 105° |
| 2026-05-07 17:59 | 48.19401 | 5.87282 | 36532 ft | 447 kts | 105° |
| 2026-05-07 17:59 | 48.18684 | 5.91800 | 36788 ft | 446 kts | 105° |
| 2026-05-07 17:59 | 48.17961 | 5.96332 | 36954 ft | 446 kts | 105° |
| 2026-05-07 18:00 | 48.16512 | 6.05377 | 37045 ft | 452 kts | 105° |
| 2026-05-07 18:00 | 48.15026 | 6.14602 | 37053 ft | 458 kts | 105° |
| 2026-05-07 18:01 | 48.13513 | 6.23955 | 37056 ft | 465 kts | 105° |
| 2026-05-07 18:01 | 48.11972 | 6.33425 | 37064 ft | 471 kts | 105° |
| 2026-05-07 18:02 | 48.09608 | 6.47850 | 37053 ft | 479 kts | 105° |
| 2026-05-07 18:03 | 48.08014 | 6.57509 | 37047 ft | 482 kts | 105° |
| 2026-05-07 18:03 | 48.06393 | 6.67280 | 37047 ft | 484 kts | 105° |
| 2026-05-07 18:04 | 48.04762 | 6.77049 | 37030 ft | 482 kts | 105° |
| 2026-05-07 18:04 | 48.03168 | 6.86550 | 37033 ft | 475 kts | 105° |
| 2026-05-07 18:05 | 48.01557 | 6.96093 | 37042 ft | 473 kts | 105° |
| 2026-05-07 18:05 | 47.99951 | 7.05554 | 37046 ft | 472 kts | 105° |
| 2026-05-07 18:06 | 47.98331 | 7.15044 | 37053 ft | 472 kts | 105° |
| 2026-05-07 18:06 | 47.96699 | 7.24554 | 37046 ft | 473 kts | 106° |
| 2026-05-07 18:07 | 47.95054 | 7.34086 | 37047 ft | 475 kts | 106° |
| 2026-05-07 18:07 | 47.93398 | 7.43635 | 37047 ft | 476 kts | 106° |
| 2026-05-07 18:08 | 47.91730 | 7.53210 | 37046 ft | 478 kts | 106° |
| 2026-05-07 18:08 | 47.89864 | 7.62732 | 37042 ft | 478 kts | 111° |
| 2026-05-07 18:09 | 47.87503 | 7.71959 | 37041 ft | 479 kts | 113° |
| 2026-05-07 18:09 | 47.85069 | 7.81205 | 37042 ft | 481 kts | 113° |
| 2026-05-07 18:10 | 47.82665 | 7.90526 | 37028 ft | 482 kts | 112° |
| 2026-05-07 18:10 | 47.80288 | 7.99826 | 37034 ft | 483 kts | 112° |
| 2026-05-07 18:11 | 47.77896 | 8.09163 | 37042 ft | 483 kts | 112° |
| 2026-05-07 18:11 | 47.75498 | 8.18472 | 37039 ft | 482 kts | 113° |
| 2026-05-07 18:12 | 47.73092 | 8.27769 | 37038 ft | 482 kts | 113° |
| 2026-05-07 18:12 | 47.70977 | 8.35915 | 37028 ft | 481 kts | 113° |
| 2026-05-07 18:13 | 47.68568 | 8.45181 | 37027 ft | 480 kts | 112° |
| 2026-05-07 18:13 | 47.66391 | 8.54564 | 37026 ft | 481 kts | 110° |
| 2026-05-07 18:14 | 47.64320 | 8.63992 | 37027 ft | 480 kts | 110° |
| 2026-05-07 18:14 | 47.62226 | 8.73323 | 37025 ft | 480 kts | 111° |
| 2026-05-07 18:15 | 47.59967 | 8.82696 | 37025 ft | 480 kts | 112° |
| 2026-05-07 18:15 | 47.57673 | 8.91989 | 37029 ft | 480 kts | 112° |
| 2026-05-07 18:16 | 47.55394 | 9.01243 | 37027 ft | 481 kts | 112° |
| 2026-05-07 18:16 | 47.53101 | 9.10578 | 37028 ft | 482 kts | 112° |
| 2026-05-07 18:17 | 47.50805 | 9.19903 | 37027 ft | 483 kts | 112° |
| 2026-05-07 18:17 | 47.48493 | 9.29262 | 37023 ft | 484 kts | 112° |
| 2026-05-07 18:18 | 47.46170 | 9.38619 | 37024 ft | 485 kts | 112° |
| 2026-05-07 18:18 | 47.43837 | 9.47975 | 37026 ft | 486 kts | 112° |
| 2026-05-07 18:19 | 47.41507 | 9.57283 | 37014 ft | 486 kts | 112° |
| 2026-05-07 18:19 | 47.39155 | 9.66641 | 37025 ft | 486 kts | 112° |
| 2026-05-07 18:20 | 47.36792 | 9.76001 | 37030 ft | 486 kts | 112° |
| 2026-05-07 18:20 | 47.34424 | 9.85346 | 37032 ft | 486 kts | 112° |
| 2026-05-07 18:21 | 47.32050 | 9.94674 | 37043 ft | 487 kts | 112° |
| 2026-05-07 18:21 | 47.29661 | 10.04018 | 37049 ft | 486 kts | 112° |
| 2026-05-07 18:22 | 47.27281 | 10.13295 | 37046 ft | 487 kts | 113° |
| 2026-05-07 18:22 | 47.24872 | 10.22645 | 37042 ft | 487 kts | 113° |
| 2026-05-07 18:23 | 47.22465 | 10.31951 | 37053 ft | 486 kts | 113° |
| 2026-05-07 18:23 | 47.20052 | 10.41242 | 37037 ft | 486 kts | 113° |
| 2026-05-07 18:24 | 47.17647 | 10.50466 | 37040 ft | 486 kts | 113° |
| 2026-05-07 18:24 | 47.15212 | 10.59756 | 37035 ft | 486 kts | 113° |
| 2026-05-07 18:25 | 47.12777 | 10.69021 | 37033 ft | 486 kts | 113° |
| 2026-05-07 18:25 | 47.10333 | 10.78288 | 37029 ft | 486 kts | 114° |
| 2026-05-07 18:26 | 47.08294 | 10.85987 | 37048 ft | 486 kts | 114° |
| 2026-05-07 18:26 | 47.05834 | 10.95240 | 37030 ft | 487 kts | 114° |
| 2026-05-07 18:27 | 47.03360 | 11.04509 | 37019 ft | 488 kts | 114° |
| 2026-05-07 18:27 | 47.00880 | 11.13764 | 37023 ft | 487 kts | 114° |
| 2026-05-07 18:28 | 46.98412 | 11.22943 | 37031 ft | 488 kts | 114° |
| 2026-05-07 18:28 | 46.95912 | 11.32198 | 37021 ft | 488 kts | 114° |
| 2026-05-07 18:29 | 46.93407 | 11.41437 | 37019 ft | 488 kts | 114° |
| 2026-05-07 18:29 | 46.90894 | 11.50671 | 37012 ft | 489 kts | 114° |
| 2026-05-07 18:30 | 46.88381 | 11.59865 | 37002 ft | 490 kts | 114° |
| 2026-05-07 18:30 | 46.85845 | 11.69113 | 37003 ft | 491 kts | 114° |
| 2026-05-07 18:31 | 46.83295 | 11.78379 | 37009 ft | 491 kts | 115° |
| 2026-05-07 18:31 | 46.80741 | 11.87619 | 37028 ft | 491 kts | 115° |
| 2026-05-07 18:32 | 46.78173 | 11.96871 | 37029 ft | 491 kts | 115° |
| 2026-05-07 18:32 | 46.75617 | 12.06048 | 37045 ft | 490 kts | 115° |
| 2026-05-07 18:33 | 46.73025 | 12.15318 | 37046 ft | 490 kts | 115° |
| 2026-05-07 18:33 | 46.70462 | 12.24452 | 37053 ft | 490 kts | 115° |
| 2026-05-07 18:34 | 46.67871 | 12.33653 | 37050 ft | 491 kts | 115° |
| 2026-05-07 18:34 | 46.65272 | 12.42841 | 37043 ft | 490 kts | 115° |
| 2026-05-07 18:35 | 46.62668 | 12.52010 | 37035 ft | 491 kts | 115° |
| 2026-05-07 18:35 | 46.60050 | 12.61194 | 37015 ft | 491 kts | 116° |
| 2026-05-07 18:36 | 46.57432 | 12.70337 | 37026 ft | 490 kts | 116° |
| 2026-05-07 18:36 | 46.54824 | 12.79423 | 37029 ft | 490 kts | 116° |
| 2026-05-07 18:37 | 46.52192 | 12.88564 | 37025 ft | 490 kts | 116° |
| 2026-05-07 18:37 | 46.49551 | 12.97694 | 37019 ft | 490 kts | 116° |
| 2026-05-07 18:38 | 46.46902 | 13.06816 | 37030 ft | 491 kts | 116° |
| 2026-05-07 18:38 | 46.44260 | 13.15881 | 37020 ft | 492 kts | 116° |
| 2026-05-07 18:39 | 46.41591 | 13.25008 | 37023 ft | 490 kts | 117° |
| 2026-05-07 18:39 | 46.38920 | 13.34111 | 37018 ft | 491 kts | 117° |
| 2026-05-07 18:40 | 46.36251 | 13.43165 | 37038 ft | 493 kts | 117° |
| 2026-05-07 18:40 | 46.33550 | 13.52293 | 37038 ft | 494 kts | 117° |
| 2026-05-07 18:41 | 46.30832 | 13.61451 | 37034 ft | 495 kts | 117° |
| 2026-05-07 18:41 | 46.28108 | 13.70572 | 37014 ft | 497 kts | 117° |
| 2026-05-07 18:42 | 46.25368 | 13.79749 | 37009 ft | 497 kts | 117° |
| 2026-05-07 18:42 | 46.22623 | 13.88908 | 37016 ft | 495 kts | 117° |
| 2026-05-07 18:43 | 46.19880 | 13.98019 | 37025 ft | 494 kts | 117° |
| 2026-05-07 18:43 | 46.17157 | 14.07028 | 37015 ft | 491 kts | 117° |
| 2026-05-07 18:44 | 46.14419 | 14.16052 | 36997 ft | 491 kts | 117° |
| 2026-05-07 18:44 | 46.11676 | 14.25060 | 36997 ft | 490 kts | 118° |
| 2026-05-07 18:45 | 46.08932 | 14.34039 | 37002 ft | 489 kts | 118° |
| 2026-05-07 18:45 | 46.06198 | 14.42954 | 37001 ft | 489 kts | 118° |
| 2026-05-07 18:46 | 46.03438 | 14.51923 | 37000 ft | 488 kts | 118° |
| 2026-05-07 18:46 | 46.00677 | 14.60865 | 36994 ft | 489 kts | 118° |
| 2026-05-07 18:47 | 45.97911 | 14.69790 | 36993 ft | 488 kts | 118° |
| 2026-05-07 18:47 | 45.95152 | 14.78660 | 37009 ft | 488 kts | 118° |
| 2026-05-07 18:48 | 45.92371 | 14.87572 | 36999 ft | 489 kts | 118° |
| 2026-05-07 18:48 | 45.89584 | 14.96471 | 36996 ft | 489 kts | 118° |
| 2026-05-07 18:49 | 45.86789 | 15.05367 | 36990 ft | 489 kts | 118° |
| 2026-05-07 18:49 | 45.83990 | 15.14246 | 36999 ft | 488 kts | 119° |
| 2026-05-07 18:50 | 45.81200 | 15.23065 | 36983 ft | 488 kts | 119° |
| 2026-05-07 18:50 | 45.78387 | 15.31932 | 36988 ft | 488 kts | 119° |
| 2026-05-07 18:51 | 45.75118 | 15.40409 | 37207 ft | 482 kts | 128° |
| 2026-05-07 18:51 | 45.73270 | 15.44392 | 37497 ft | 479 kts | 129° |
| 2026-05-07 18:51 | 45.71406 | 15.48337 | 37724 ft | 478 kts | 129° |
| 2026-05-07 18:51 | 45.69542 | 15.52274 | 37870 ft | 478 kts | 129° |
| 2026-05-07 18:52 | 45.67678 | 15.56230 | 38015 ft | 479 kts | 129° |
| 2026-05-07 18:52 | 45.65851 | 15.60130 | 38206 ft | 478 kts | 129° |
| 2026-05-07 18:52 | 45.64007 | 15.64085 | 38403 ft | 477 kts | 129° |
| 2026-05-07 18:52 | 45.62174 | 15.68026 | 38548 ft | 477 kts | 129° |
| 2026-05-07 18:53 | 45.60332 | 15.71986 | 38675 ft | 477 kts | 129° |
| 2026-05-07 18:53 | 45.58494 | 15.75933 | 38789 ft | 477 kts | 129° |
| 2026-05-07 18:53 | 45.56656 | 15.79875 | 38913 ft | 476 kts | 129° |
| 2026-05-07 18:54 | 45.52968 | 15.87765 | 38989 ft | 480 kts | 129° |
| 2026-05-07 18:54 | 45.49233 | 15.95726 | 39012 ft | 485 kts | 129° |
| 2026-05-07 18:55 | 45.45476 | 16.03714 | 39016 ft | 489 kts | 129° |
| 2026-05-07 18:55 | 45.41663 | 16.11800 | 39013 ft | 493 kts | 129° |
| 2026-05-07 18:56 | 45.37837 | 16.19897 | 39005 ft | 489 kts | 129° |
| 2026-05-07 18:56 | 45.34100 | 16.27794 | 39006 ft | 474 kts | 129° |
| 2026-05-07 18:57 | 45.30451 | 16.35467 | 39012 ft | 470 kts | 129° |
| 2026-05-07 18:57 | 45.26779 | 16.43157 | 39024 ft | 472 kts | 129° |
| 2026-05-07 18:58 | 45.23101 | 16.50842 | 39022 ft | 476 kts | 129° |
| 2026-05-07 18:58 | 45.19365 | 16.58632 | 39037 ft | 480 kts | 129° |
| 2026-05-07 18:59 | 45.15608 | 16.66449 | 39031 ft | 483 kts | 129° |
| 2026-05-07 18:59 | 45.11802 | 16.74347 | 39031 ft | 486 kts | 129° |
| 2026-05-07 19:00 | 45.07977 | 16.82262 | 39027 ft | 488 kts | 129° |
| 2026-05-07 19:00 | 45.04138 | 16.90185 | 39031 ft | 487 kts | 129° |
| 2026-05-07 19:01 | 45.00327 | 16.98032 | 39022 ft | 486 kts | 129° |
| 2026-05-07 19:01 | 44.96500 | 17.05914 | 39011 ft | 486 kts | 128° |
| 2026-05-07 19:02 | 44.93167 | 17.14251 | 39018 ft | 488 kts | 122° |
| 2026-05-07 19:02 | 44.90047 | 17.22756 | 39021 ft | 486 kts | 122° |
| 2026-05-07 19:03 | 44.86939 | 17.31150 | 39011 ft | 484 kts | 122° |
| 2026-05-07 19:03 | 44.83779 | 17.39523 | 39019 ft | 483 kts | 123° |
| 2026-05-07 19:04 | 44.80604 | 17.47855 | 39020 ft | 482 kts | 123° |
| 2026-05-07 19:04 | 44.77439 | 17.56128 | 39030 ft | 481 kts | 123° |
| 2026-05-07 19:05 | 44.74260 | 17.64416 | 39031 ft | 481 kts | 123° |
| 2026-05-07 19:05 | 44.71072 | 17.72710 | 39033 ft | 482 kts | 123° |
| 2026-05-07 19:06 | 44.67897 | 17.80948 | 39036 ft | 482 kts | 123° |
| 2026-05-07 19:06 | 44.63083 | 17.93390 | 39034 ft | 484 kts | 123° |
| 2026-05-07 19:07 | 44.59857 | 18.01695 | 39037 ft | 484 kts | 123° |
| 2026-05-07 19:07 | 44.56622 | 18.10001 | 39034 ft | 485 kts | 123° |
| 2026-05-07 19:08 | 44.53399 | 18.18252 | 39035 ft | 485 kts | 123° |
| 2026-05-07 19:08 | 44.50143 | 18.26562 | 39033 ft | 486 kts | 123° |
| 2026-05-07 19:09 | 44.46875 | 18.34876 | 39032 ft | 486 kts | 123° |
| 2026-05-07 19:09 | 44.43635 | 18.43099 | 39047 ft | 485 kts | 123° |
| 2026-05-07 19:10 | 44.40368 | 18.51363 | 39040 ft | 485 kts | 123° |
| 2026-05-07 19:10 | 44.37090 | 18.59630 | 39047 ft | 485 kts | 123° |
| 2026-05-07 19:11 | 44.33816 | 18.67864 | 39044 ft | 483 kts | 123° |
| 2026-05-07 19:11 | 44.30544 | 18.76069 | 39039 ft | 484 kts | 123° |
| 2026-05-07 19:12 | 44.27264 | 18.84272 | 39042 ft | 484 kts | 123° |
| 2026-05-07 19:12 | 44.23977 | 18.92467 | 39035 ft | 484 kts | 123° |
| 2026-05-07 19:13 | 44.20684 | 19.00652 | 39049 ft | 484 kts | 123° |
| 2026-05-07 19:13 | 44.17384 | 19.08836 | 39046 ft | 485 kts | 123° |
| 2026-05-07 19:14 | 44.14095 | 19.16971 | 39050 ft | 485 kts | 122° |
| 2026-05-07 19:14 | 44.11233 | 19.25515 | 39045 ft | 489 kts | 116° |
| 2026-05-07 19:15 | 44.08666 | 19.34287 | 39061 ft | 490 kts | 115° |
| 2026-05-07 19:15 | 44.06092 | 19.43061 | 39046 ft | 490 kts | 115° |
| 2026-05-07 19:16 | 44.03470 | 19.51790 | 39043 ft | 490 kts | 116° |
| 2026-05-07 19:16 | 44.00815 | 19.60509 | 39051 ft | 489 kts | 116° |
| 2026-05-07 19:17 | 43.98153 | 19.69206 | 39055 ft | 489 kts | 116° |
| 2026-05-07 19:17 | 43.95489 | 19.77888 | 39052 ft | 489 kts | 116° |
| 2026-05-07 19:18 | 43.93274 | 19.85091 | 39055 ft | 489 kts | 116° |
| 2026-05-07 19:18 | 43.90596 | 19.93772 | 39052 ft | 489 kts | 116° |
| 2026-05-07 19:19 | 43.87914 | 20.02439 | 39062 ft | 489 kts | 116° |
| 2026-05-07 19:19 | 43.85228 | 20.11090 | 39052 ft | 489 kts | 116° |
| 2026-05-07 19:20 | 43.82532 | 20.19740 | 39052 ft | 489 kts | 116° |
| 2026-05-07 19:20 | 43.79836 | 20.28366 | 39049 ft | 489 kts | 116° |
| 2026-05-07 19:21 | 43.77128 | 20.36999 | 39054 ft | 489 kts | 116° |
| 2026-05-07 19:21 | 43.74413 | 20.45627 | 39050 ft | 489 kts | 116° |
| 2026-05-07 19:22 | 43.71697 | 20.54228 | 39049 ft | 489 kts | 116° |
| 2026-05-07 19:22 | 43.68974 | 20.62827 | 39052 ft | 489 kts | 116° |
| 2026-05-07 19:23 | 43.66238 | 20.71437 | 39057 ft | 489 kts | 117° |
| 2026-05-07 19:23 | 43.63501 | 20.80022 | 39051 ft | 489 kts | 116° |
| 2026-05-07 19:24 | 43.60756 | 20.88602 | 39058 ft | 488 kts | 116° |
| 2026-05-07 19:24 | 43.58005 | 20.97175 | 39061 ft | 488 kts | 116° |
| 2026-05-07 19:25 | 43.55266 | 21.05680 | 39055 ft | 488 kts | 117° |
| 2026-05-07 19:25 | 43.52503 | 21.14235 | 39059 ft | 489 kts | 117° |
| 2026-05-07 19:26 | 43.49734 | 21.22780 | 39056 ft | 489 kts | 117° |
| 2026-05-07 19:26 | 43.46957 | 21.31325 | 39058 ft | 489 kts | 117° |
| 2026-05-07 19:27 | 43.44173 | 21.39862 | 39058 ft | 489 kts | 117° |
| 2026-05-07 19:27 | 43.41381 | 21.48395 | 39051 ft | 489 kts | 117° |
| 2026-05-07 19:28 | 43.38589 | 21.56904 | 39050 ft | 488 kts | 117° |
| 2026-05-07 19:28 | 43.35788 | 21.65410 | 39067 ft | 489 kts | 117° |
| 2026-05-07 19:29 | 43.32982 | 21.73906 | 39081 ft | 489 kts | 117° |
| 2026-05-07 19:29 | 43.30164 | 21.82411 | 39075 ft | 489 kts | 117° |
| 2026-05-07 19:30 | 43.27340 | 21.90906 | 39078 ft | 490 kts | 117° |
| 2026-05-07 19:30 | 43.24501 | 21.99421 | 39066 ft | 491 kts | 117° |
| 2026-05-07 19:31 | 43.21654 | 22.07932 | 39072 ft | 492 kts | 117° |
| 2026-05-07 19:31 | 43.18792 | 22.16461 | 39073 ft | 494 kts | 117° |
| 2026-05-07 19:32 | 43.15934 | 22.24952 | 39083 ft | 494 kts | 117° |
| 2026-05-07 19:32 | 43.13026 | 22.33564 | 39082 ft | 495 kts | 117° |
| 2026-05-07 19:33 | 43.10158 | 22.42036 | 39082 ft | 490 kts | 117° |
| 2026-05-07 19:33 | 43.07312 | 22.50417 | 39082 ft | 484 kts | 117° |
| 2026-05-07 19:34 | 43.04476 | 22.58735 | 39092 ft | 481 kts | 118° |
| 2026-05-07 19:34 | 43.01655 | 22.66987 | 39092 ft | 479 kts | 118° |
| 2026-05-07 19:35 | 42.98825 | 22.75244 | 39105 ft | 482 kts | 118° |
| 2026-05-07 19:35 | 42.96063 | 22.83623 | 39106 ft | 488 kts | 114° |
| 2026-05-07 19:36 | 42.93563 | 22.92287 | 39114 ft | 492 kts | 113° |
| 2026-05-07 19:36 | 42.91091 | 23.01033 | 39099 ft | 496 kts | 113° |
| 2026-05-07 19:37 | 42.88570 | 23.09797 | 39094 ft | 495 kts | 114° |
| 2026-05-07 19:37 | 42.86050 | 23.18445 | 39084 ft | 487 kts | 114° |
| 2026-05-07 19:38 | 42.83545 | 23.26987 | 39097 ft | 484 kts | 114° |
| 2026-05-07 19:38 | 42.81050 | 23.35470 | 39095 ft | 482 kts | 114° |
| 2026-05-07 19:39 | 42.78572 | 23.43872 | 39106 ft | 481 kts | 114° |
| 2026-05-07 19:39 | 42.76062 | 23.52355 | 39118 ft | 486 kts | 114° |
| 2026-05-07 19:40 | 42.73516 | 23.60929 | 39112 ft | 491 kts | 114° |
| 2026-05-07 19:40 | 42.70942 | 23.69574 | 39107 ft | 495 kts | 114° |
| 2026-05-07 19:41 | 42.68341 | 23.78281 | 39099 ft | 498 kts | 114° |
| 2026-05-07 19:41 | 42.65743 | 23.86954 | 39081 ft | 492 kts | 114° |
| 2026-05-07 19:42 | 42.63179 | 23.95480 | 39088 ft | 486 kts | 114° |
| 2026-05-07 19:42 | 42.60625 | 24.03949 | 39086 ft | 484 kts | 114° |
| 2026-05-07 19:43 | 42.58027 | 24.12369 | 39087 ft | 483 kts | 115° |
| 2026-05-07 19:43 | 42.55262 | 24.20672 | 39078 ft | 482 kts | 116° |
| 2026-05-07 19:44 | 42.52469 | 24.28934 | 39078 ft | 483 kts | 116° |
| 2026-05-07 19:44 | 42.49677 | 24.37245 | 39075 ft | 486 kts | 116° |
| 2026-05-07 19:45 | 42.46881 | 24.45598 | 39065 ft | 488 kts | 116° |
| 2026-05-07 19:45 | 42.44083 | 24.53945 | 39067 ft | 490 kts | 116° |
| 2026-05-07 19:46 | 42.41252 | 24.62363 | 39064 ft | 492 kts | 116° |
| 2026-05-07 19:46 | 42.38402 | 24.70807 | 39055 ft | 495 kts | 116° |
| 2026-05-07 19:47 | 42.35534 | 24.79277 | 39052 ft | 496 kts | 116° |
| 2026-05-07 19:47 | 42.32654 | 24.87759 | 39056 ft | 496 kts | 116° |
| 2026-05-07 19:48 | 42.29771 | 24.96222 | 39055 ft | 496 kts | 116° |
| 2026-05-07 19:48 | 42.26884 | 25.04670 | 39049 ft | 495 kts | 116° |
| 2026-05-07 19:49 | 42.23999 | 25.13087 | 39041 ft | 493 kts | 116° |
| 2026-05-07 19:49 | 42.21138 | 25.21408 | 39035 ft | 491 kts | 116° |
| 2026-05-07 19:50 | 42.18266 | 25.29737 | 39031 ft | 489 kts | 116° |
| 2026-05-07 19:50 | 42.15394 | 25.38041 | 39031 ft | 488 kts | 116° |
| 2026-05-07 19:51 | 42.12527 | 25.46304 | 39026 ft | 486 kts | 116° |
| 2026-05-07 19:51 | 42.09659 | 25.54549 | 39028 ft | 486 kts | 116° |
| 2026-05-07 19:52 | 42.06789 | 25.62772 | 39029 ft | 485 kts | 116° |
| 2026-05-07 19:52 | 42.03917 | 25.70979 | 39031 ft | 485 kts | 116° |
| 2026-05-07 19:53 | 42.01026 | 25.79214 | 38867 ft | 492 kts | 116° |
| 2026-05-07 19:53 | 41.99554 | 25.83399 | 38394 ft | 497 kts | 116° |
| 2026-05-07 19:53 | 41.98083 | 25.87574 | 37835 ft | 493 kts | 116° |
| 2026-05-07 19:54 | 41.96616 | 25.91734 | 37308 ft | 491 kts | 116° |
| 2026-05-07 19:54 | 41.95154 | 25.95873 | 36734 ft | 490 kts | 116° |
| 2026-05-07 19:54 | 41.93690 | 26.00008 | 36051 ft | 491 kts | 117° |
| 2026-05-07 19:54 | 41.92222 | 26.04149 | 35386 ft | 491 kts | 117° |
| 2026-05-07 19:55 | 41.90754 | 26.08288 | 34731 ft | 490 kts | 117° |
| 2026-05-07 19:55 | 41.89292 | 26.12401 | 34105 ft | 488 kts | 117° |
| 2026-05-07 19:55 | 41.87837 | 26.16489 | 33371 ft | 482 kts | 117° |
| 2026-05-07 19:55 | 41.86401 | 26.20519 | 32640 ft | 475 kts | 117° |
| 2026-05-07 19:56 | 41.84982 | 26.24495 | 31945 ft | 469 kts | 117° |
| 2026-05-07 19:56 | 41.83583 | 26.28411 | 31264 ft | 463 kts | 117° |
| 2026-05-07 19:56 | 41.82202 | 26.32270 | 30594 ft | 457 kts | 117° |
| 2026-05-07 19:56 | 41.80836 | 26.36087 | 30093 ft | 449 kts | 116° |
| 2026-05-07 19:57 | 41.79642 | 26.39929 | 29628 ft | 445 kts | 111° |
| 2026-05-07 19:57 | 41.78630 | 26.43766 | 29166 ft | 440 kts | 110° |
| 2026-05-07 19:57 | 41.77645 | 26.47621 | 28710 ft | 436 kts | 110° |
| 2026-05-07 19:57 | 41.76637 | 26.51425 | 28252 ft | 431 kts | 111° |
| 2026-05-07 19:58 | 41.75625 | 26.55124 | 27812 ft | 427 kts | 112° |
| 2026-05-07 19:58 | 41.74361 | 26.58756 | 27360 ft | 422 kts | 122° |
| 2026-05-07 19:58 | 41.72769 | 26.62035 | 26940 ft | 417 kts | 126° |
| 2026-05-07 19:58 | 41.71137 | 26.65218 | 26511 ft | 414 kts | 126° |
| 2026-05-07 19:59 | 41.69318 | 26.68172 | 26072 ft | 409 kts | 138° |
| 2026-05-07 19:59 | 41.67227 | 26.70633 | 25690 ft | 404 kts | 141° |
| 2026-05-07 19:59 | 41.65080 | 26.73019 | 25340 ft | 399 kts | 142° |
| 2026-05-07 19:59 | 41.62940 | 26.75374 | 25003 ft | 395 kts | 142° |
| 2026-05-07 20:00 | 41.60834 | 26.77700 | 24672 ft | 391 kts | 142° |
| 2026-05-07 20:00 | 41.58756 | 26.80010 | 24344 ft | 387 kts | 142° |
| 2026-05-07 20:00 | 41.56702 | 26.82307 | 24022 ft | 383 kts | 142° |
| 2026-05-07 20:00 | 41.54673 | 26.84586 | 23696 ft | 380 kts | 141° |
| 2026-05-07 20:01 | 41.52661 | 26.86848 | 23330 ft | 376 kts | 141° |
| 2026-05-07 20:01 | 41.50667 | 26.89091 | 22955 ft | 373 kts | 141° |
| 2026-05-07 20:01 | 41.48693 | 26.91312 | 22584 ft | 370 kts | 141° |
| 2026-05-07 20:01 | 41.46734 | 26.93513 | 22223 ft | 367 kts | 141° |
| 2026-05-07 20:02 | 41.44788 | 26.95698 | 21863 ft | 364 kts | 141° |
| 2026-05-07 20:02 | 41.42854 | 26.97868 | 21504 ft | 362 kts | 141° |
| 2026-05-07 20:02 | 41.40936 | 27.00018 | 21160 ft | 359 kts | 141° |
| 2026-05-07 20:02 | 41.39031 | 27.02152 | 20804 ft | 357 kts | 141° |
| 2026-05-07 20:03 | 41.37138 | 27.04270 | 20456 ft | 354 kts | 141° |
| 2026-05-07 20:03 | 41.35259 | 27.06372 | 20123 ft | 352 kts | 141° |
| 2026-05-07 20:03 | 41.33391 | 27.08459 | 19787 ft | 350 kts | 141° |
| 2026-05-07 20:03 | 41.31559 | 27.10506 | 19452 ft | 347 kts | 141° |
| 2026-05-07 20:04 | 41.29713 | 27.12565 | 19132 ft | 345 kts | 141° |
| 2026-05-07 20:04 | 41.27877 | 27.14612 | 18806 ft | 343 kts | 141° |
| 2026-05-07 20:04 | 41.26055 | 27.16643 | 18481 ft | 341 kts | 141° |
| 2026-05-07 20:04 | 41.24242 | 27.18663 | 18133 ft | 339 kts | 141° |
| 2026-05-07 20:05 | 41.22437 | 27.20671 | 17758 ft | 337 kts | 141° |
| 2026-05-07 20:05 | 41.20642 | 27.22665 | 17393 ft | 336 kts | 141° |
| 2026-05-07 20:05 | 41.18820 | 27.24584 | 17030 ft | 333 kts | 147° |
| 2026-05-07 20:05 | 41.16863 | 27.26197 | 16680 ft | 331 kts | 151° |
| 2026-05-07 20:06 | 41.14865 | 27.27703 | 16327 ft | 329 kts | 152° |
| 2026-05-07 20:06 | 41.12885 | 27.29211 | 15981 ft | 327 kts | 151° |
| 2026-05-07 20:06 | 41.10929 | 27.30740 | 15633 ft | 326 kts | 150° |
| 2026-05-07 20:06 | 41.08983 | 27.32280 | 15283 ft | 325 kts | 150° |
| 2026-05-07 20:07 | 41.07052 | 27.33816 | 14958 ft | 323 kts | 150° |
| 2026-05-07 20:07 | 41.05126 | 27.35347 | 14621 ft | 322 kts | 150° |
| 2026-05-07 20:07 | 41.03209 | 27.36870 | 14286 ft | 321 kts | 150° |
| 2026-05-07 20:07 | 41.01298 | 27.38387 | 13967 ft | 319 kts | 150° |
| 2026-05-07 20:08 | 40.99419 | 27.39878 | 13584 ft | 311 kts | 150° |
| 2026-05-07 20:08 | 40.97673 | 27.41497 | 13205 ft | 304 kts | 136° |
| 2026-05-07 20:08 | 40.96814 | 27.42925 | 12889 ft | 303 kts | 122° |
| 2026-05-07 20:08 | 40.96139 | 27.45525 | 12608 ft | 294 kts | 94° |
| 2026-05-07 20:09 | 40.96437 | 27.48100 | 12416 ft | 281 kts | 63° |
| 2026-05-07 20:09 | 40.97459 | 27.49892 | 12315 ft | 272 kts | 37° |
| 2026-05-07 20:09 | 40.99110 | 27.51128 | 12133 ft | 277 kts | 17° |
| 2026-05-07 20:10 | 41.02759 | 27.51084 | 12134 ft | 257 kts | 336° |
| 2026-05-07 20:10 | 41.04287 | 27.49858 | 11917 ft | 255 kts | 313° |
| 2026-05-07 20:10 | 41.05210 | 27.47920 | 12027 ft | 250 kts | 290° |
| 2026-05-07 20:10 | 41.05853 | 27.45748 | 12110 ft | 256 kts | 290° |
| 2026-05-07 20:11 | 41.06512 | 27.43527 | 12111 ft | 260 kts | 290° |
| 2026-05-07 20:11 | 41.07174 | 27.41306 | 12110 ft | 258 kts | 290° |
| 2026-05-07 20:11 | 41.07831 | 27.39101 | 12108 ft | 256 kts | 290° |
| 2026-05-07 20:11 | 41.08486 | 27.36906 | 12028 ft | 258 kts | 290° |
| 2026-05-07 20:12 | 41.08818 | 27.34601 | 11974 ft | 254 kts | 266° |
| 2026-05-07 20:12 | 41.08479 | 27.32321 | 11964 ft | 254 kts | 248° |
| 2026-05-07 20:12 | 41.07581 | 27.30310 | 11973 ft | 255 kts | 229° |
| 2026-05-07 20:12 | 41.06208 | 27.28835 | 11970 ft | 256 kts | 208° |
| 2026-05-07 20:13 | 41.04520 | 27.28117 | 11961 ft | 257 kts | 187° |
| 2026-05-07 20:13 | 41.02742 | 27.28284 | 11963 ft | 259 kts | 165° |
| 2026-05-07 20:13 | 41.01122 | 27.29327 | 11966 ft | 261 kts | 145° |
| 2026-05-07 20:13 | 40.99832 | 27.31019 | 11969 ft | 264 kts | 124° |
| 2026-05-07 20:14 | 40.99049 | 27.33183 | 11987 ft | 265 kts | 113° |
| 2026-05-07 20:14 | 40.98367 | 27.35459 | 11975 ft | 267 kts | 112° |
| 2026-05-07 20:14 | 40.97687 | 27.37750 | 11974 ft | 269 kts | 112° |
| 2026-05-07 20:14 | 40.97000 | 27.40059 | 11973 ft | 270 kts | 112° |
| 2026-05-07 20:15 | 40.96313 | 27.42371 | 11972 ft | 271 kts | 110° |
| 2026-05-07 20:15 | 40.96073 | 27.44821 | 11968 ft | 271 kts | 81° |
| 2026-05-07 20:15 | 40.96736 | 27.47118 | 11970 ft | 269 kts | 52° |
| 2026-05-07 20:15 | 40.98130 | 27.48719 | 11976 ft | 266 kts | 24° |
| 2026-05-07 20:16 | 40.99900 | 27.49266 | 11981 ft | 262 kts | 355° |
| 2026-05-07 20:16 | 41.01640 | 27.48676 | 11971 ft | 258 kts | 328° |
| 2026-05-07 20:16 | 41.02979 | 27.47154 | 11980 ft | 255 kts | 305° |
| 2026-05-07 20:16 | 41.03822 | 27.45100 | 11980 ft | 254 kts | 291° |
| 2026-05-07 20:17 | 41.04466 | 27.42916 | 11973 ft | 255 kts | 289° |
| 2026-05-07 20:17 | 41.05099 | 27.40707 | 11975 ft | 257 kts | 290° |
| 2026-05-07 20:17 | 41.05741 | 27.38498 | 11970 ft | 258 kts | 290° |
| 2026-05-07 20:17 | 41.06363 | 27.36266 | 11958 ft | 258 kts | 282° |
| 2026-05-07 20:18 | 41.06358 | 27.33930 | 11974 ft | 255 kts | 254° |
| 2026-05-07 20:18 | 41.05560 | 27.31861 | 11963 ft | 254 kts | 229° |
| 2026-05-07 20:18 | 41.04156 | 27.30461 | 11970 ft | 255 kts | 204° |
| 2026-05-07 20:18 | 41.02416 | 27.30027 | 11963 ft | 258 kts | 177° |
| 2026-05-07 20:19 | 41.00701 | 27.30699 | 11967 ft | 261 kts | 149° |
| 2026-05-07 20:19 | 40.99384 | 27.32350 | 11976 ft | 264 kts | 124° |
| 2026-05-07 20:19 | 40.98566 | 27.34530 | 11982 ft | 266 kts | 113° |
| 2026-05-07 20:19 | 40.97901 | 27.36827 | 11977 ft | 268 kts | 112° |
| 2026-05-07 20:20 | 40.97229 | 27.39137 | 11970 ft | 270 kts | 112° |
| 2026-05-07 20:20 | 40.96547 | 27.41451 | 11968 ft | 270 kts | 112° |
| 2026-05-07 20:20 | 40.95864 | 27.43769 | 11972 ft | 271 kts | 112° |
| 2026-05-07 20:20 | 40.95181 | 27.46096 | 11968 ft | 271 kts | 111° |
| 2026-05-07 20:21 | 40.94781 | 27.48528 | 11978 ft | 271 kts | 97° |
| 2026-05-07 20:21 | 40.94628 | 27.51015 | 11975 ft | 272 kts | 94° |
| 2026-05-07 20:21 | 40.94514 | 27.53510 | 11973 ft | 271 kts | 94° |
| 2026-05-07 20:21 | 40.94394 | 27.55967 | 11978 ft | 271 kts | 94° |
| 2026-05-07 20:22 | 40.94256 | 27.58482 | 11978 ft | 271 kts | 95° |
| 2026-05-07 20:22 | 40.94107 | 27.60984 | 11994 ft | 279 kts | 95° |
| 2026-05-07 20:22 | 40.93941 | 27.63626 | 12003 ft | 294 kts | 95° |
| 2026-05-07 20:22 | 40.93849 | 27.66348 | 11986 ft | 298 kts | 89° |
| 2026-05-07 20:23 | 40.93965 | 27.69088 | 11977 ft | 297 kts | 85° |
| 2026-05-07 20:23 | 40.94137 | 27.71764 | 11978 ft | 296 kts | 85° |
| 2026-05-07 20:23 | 40.94315 | 27.74467 | 11977 ft | 295 kts | 85° |
| 2026-05-07 20:23 | 40.94486 | 27.77171 | 11974 ft | 294 kts | 85° |
| 2026-05-07 20:24 | 40.94646 | 27.79865 | 11827 ft | 292 kts | 85° |
| 2026-05-07 20:24 | 40.94796 | 27.82523 | 11549 ft | 290 kts | 86° |
| 2026-05-07 20:24 | 40.94942 | 27.85190 | 11164 ft | 292 kts | 86° |
| 2026-05-07 20:24 | 40.95084 | 27.87880 | 10786 ft | 294 kts | 86° |
| 2026-05-07 20:25 | 40.95225 | 27.90582 | 10471 ft | 294 kts | 86° |
| 2026-05-07 20:25 | 40.95363 | 27.93280 | 10184 ft | 293 kts | 86° |
| 2026-05-07 20:25 | 40.95500 | 27.95963 | 9887 ft | 291 kts | 86° |
| 2026-05-07 20:25 | 40.95634 | 27.98631 | 9570 ft | 290 kts | 86° |
| 2026-05-07 20:26 | 40.95767 | 28.01285 | 9258 ft | 289 kts | 86° |
| 2026-05-07 20:26 | 40.95899 | 28.03933 | 8952 ft | 288 kts | 86° |
| 2026-05-07 20:26 | 40.96029 | 28.06571 | 8649 ft | 287 kts | 86° |
| 2026-05-07 20:26 | 40.96158 | 28.09195 | 8342 ft | 286 kts | 86° |
| 2026-05-07 20:27 | 40.96287 | 28.11818 | 8039 ft | 285 kts | 86° |
| 2026-05-07 20:27 | 40.96414 | 28.14429 | 7724 ft | 285 kts | 86° |
| 2026-05-07 20:27 | 40.96540 | 28.17039 | 7408 ft | 285 kts | 86° |
| 2026-05-07 20:27 | 40.96667 | 28.19653 | 7085 ft | 285 kts | 86° |
| 2026-05-07 20:28 | 40.96792 | 28.22267 | 6781 ft | 285 kts | 86° |
| 2026-05-07 20:28 | 40.96917 | 28.24883 | 6472 ft | 285 kts | 86° |
| 2026-05-07 20:28 | 40.97042 | 28.27494 | 6145 ft | 285 kts | 86° |
| 2026-05-07 20:28 | 40.97166 | 28.30109 | 5826 ft | 284 kts | 86° |
| 2026-05-07 20:29 | 40.97289 | 28.32707 | 5586 ft | 282 kts | 86° |
| 2026-05-07 20:29 | 40.97409 | 28.35282 | 5336 ft | 280 kts | 86° |
| 2026-05-07 20:29 | 40.97529 | 28.37847 | 5086 ft | 278 kts | 86° |
| 2026-05-07 20:29 | 40.97599 | 28.40393 | 4840 ft | 277 kts | 90° |
| 2026-05-07 20:30 | 40.97590 | 28.42936 | 4589 ft | 276 kts | 91° |
| 2026-05-07 20:30 | 40.97574 | 28.45469 | 4335 ft | 275 kts | 90° |
| 2026-05-07 20:30 | 40.97562 | 28.47997 | 4092 ft | 275 kts | 90° |
| 2026-05-07 20:30 | 40.97554 | 28.50494 | 3850 ft | 275 kts | 90° |
| 2026-05-07 20:31 | 40.97547 | 28.53033 | 3605 ft | 276 kts | 90° |
| 2026-05-07 20:31 | 40.97540 | 28.55573 | 3365 ft | 277 kts | 90° |
| 2026-05-07 20:31 | 40.97534 | 28.58122 | 3123 ft | 277 kts | 90° |
| 2026-05-07 20:31 | 40.97528 | 28.60397 | 3018 ft | 270 kts | 90° |
| 2026-05-07 20:32 | 40.97520 | 28.62832 | 2983 ft | 259 kts | 90° |
| 2026-05-07 20:32 | 40.97538 | 28.65156 | 2981 ft | 250 kts | 82° |
| 2026-05-07 20:32 | 40.98136 | 28.67253 | 2988 ft | 240 kts | 50° |
| 2026-05-07 20:32 | 40.99323 | 28.68688 | 2992 ft | 224 kts | 28° |
| 2026-05-07 20:33 | 41.00622 | 28.69689 | 3004 ft | 210 kts | 24° |
| 2026-05-07 20:33 | 41.01896 | 28.70607 | 2989 ft | 207 kts | 23° |
| 2026-05-07 20:33 | 41.03135 | 28.71193 | 2988 ft | 199 kts | 0° |
| 2026-05-07 20:33 | 41.04546 | 28.71191 | 3009 ft | 198 kts | 354° |
| 2026-05-07 20:34 | 41.05897 | 28.71158 | 3002 ft | 190 kts | 354° |
| 2026-05-07 20:34 | 41.07116 | 28.71134 | 2977 ft | 180 kts | 354° |
| 2026-05-07 20:34 | 41.08361 | 28.71109 | 2991 ft | 178 kts | 353° |
| 2026-05-07 20:34 | 41.09595 | 28.71082 | 2980 ft | 177 kts | 353° |
| 2026-05-07 20:35 | 41.10806 | 28.71058 | 2983 ft | 170 kts | 353° |
| 2026-05-07 20:35 | 41.11974 | 28.71031 | 2973 ft | 167 kts | 353° |
| 2026-05-07 20:35 | 41.13143 | 28.71005 | 2918 ft | 171 kts | 353° |
| 2026-05-07 20:35 | 41.14318 | 28.70984 | 2719 ft | 164 kts | 353° |
| 2026-05-07 20:36 | 41.15424 | 28.70964 | 2482 ft | 154 kts | 353° |
| 2026-05-07 20:36 | 41.16458 | 28.70941 | 2287 ft | 144 kts | 352° |
| 2026-05-07 20:36 | 41.17447 | 28.70920 | 2125 ft | 145 kts | 353° |
| 2026-05-07 20:36 | 41.18466 | 28.70900 | 1926 ft | 150 kts | 353° |
| 2026-05-07 20:37 | 41.19531 | 28.70874 | 1744 ft | 151 kts | 353° |
| 2026-05-07 20:37 | 41.20557 | 28.70866 | 1562 ft | 155 kts | 356° |
| 2026-05-07 20:37 | 41.21606 | 28.70863 | 1415 ft | 150 kts | 355° |
| 2026-05-07 20:37 | 41.22659 | 28.70821 | 1155 ft | 152 kts | 355° |
| 2026-05-07 20:38 | 41.23679 | 28.70789 | 926 ft | 151 kts | 358° |
| 2026-05-07 20:38 | 41.24747 | 28.70781 | 725 ft | 148 kts | 359° |
| 2026-05-07 20:38 | 41.25781 | 28.70744 | 512 ft | 149 kts | 359° |
| 2026-05-07 20:38 | 41.26809 | 28.70731 | 359 ft | 144 kts | 358° |
| 2026-05-07 20:39 | 41.27702 | 28.70709 | 332 ft | 103 kts | 358° |
| 2026-05-07 20:39 | 41.28200 | 28.70698 | 333 ft | 48 kts | 359° |
| 2026-05-07 20:39 | 41.28477 | 28.70708 | 333 ft | 35 kts | 12° |
| 2026-05-07 20:39 | 41.28669 | 28.70818 | 333 ft | 23 kts | 28° |
| 2026-05-07 20:40 | 41.28809 | 28.70920 | 331 ft | 23 kts | 28° |
| 2026-05-07 20:40 | 41.28944 | 28.71020 | 333 ft | 19 kts | 29° |
| 2026-05-07 20:40 | 41.29022 | 28.71114 | 329 ft | 15 kts | 84° |
| 2026-05-07 20:40 | 41.28973 | 28.71160 | 333 ft | 10 kts | 179° |
| 2026-05-07 20:41 | 41.28854 | 28.71161 | 330 ft | 23 kts | 178° |
| 2026-05-07 20:41 | 41.28687 | 28.71165 | 332 ft | 23 kts | 179° |
| 2026-05-07 20:41 | 41.28527 | 28.71169 | 329 ft | 24 kts | 179° |
| 2026-05-07 20:41 | 41.28348 | 28.71173 | 332 ft | 28 kts | 179° |
| 2026-05-07 20:42 | 41.28144 | 28.71178 | 331 ft | 31 kts | 179° |
| 2026-05-07 20:42 | 41.27931 | 28.71183 | 331 ft | 30 kts | 179° |
| 2026-05-07 20:42 | 41.27729 | 28.71188 | 332 ft | 28 kts | 179° |
| 2026-05-07 20:42 | 41.27539 | 28.71192 | 331 ft | 26 kts | 179° |
| 2026-05-07 20:43 | 41.27361 | 28.71197 | 333 ft | 25 kts | 178° |
| 2026-05-07 20:43 | 41.27195 | 28.71201 | 332 ft | 23 kts | 179° |
| 2026-05-07 20:43 | 41.27038 | 28.71203 | 330 ft | 22 kts | 179° |
| 2026-05-07 20:43 | 41.26884 | 28.71209 | 329 ft | 22 kts | 178° |
| 2026-05-07 20:44 | 41.26749 | 28.71210 | 331 ft | 13 kts | 177° |
| 2026-05-07 20:44 | 41.26694 | 28.71284 | 332 ft | 12 kts | 88° |
| 2026-05-07 20:44 | 41.26696 | 28.71416 | 332 ft | 20 kts | 89° |
| 2026-05-07 20:44 | 41.26700 | 28.71668 | 331 ft | 31 kts | 89° |
| 2026-05-07 20:45 | 41.26704 | 28.71947 | 333 ft | 25 kts | 89° |
| 2026-05-07 20:45 | 41.26705 | 28.72105 | 333 ft | 10 kts | 89° |
| 2026-05-07 20:45 | 41.26669 | 28.72171 | 331 ft | 10 kts | 173° |
| 2026-05-07 20:45 | 41.26595 | 28.72174 | 329 ft | 12 kts | 179° |
| 2026-05-07 20:46 | 41.26478 | 28.72176 | 330 ft | 22 kts | 179° |
| 2026-05-07 20:46 | 41.26305 | 28.72180 | 330 ft | 26 kts | 179° |
| 2026-05-07 20:46 | 41.26128 | 28.72160 | 329 ft | 25 kts | 188° |
| 2026-05-07 20:46 | 41.25963 | 28.72130 | 331 ft | 23 kts | 188° |
| 2026-05-07 20:47 | 41.25809 | 28.72102 | 332 ft | 22 kts | 186° |
| 2026-05-07 20:47 | 41.25653 | 28.72092 | 332 ft | 23 kts | 179° |
| 2026-05-07 20:47 | 41.25476 | 28.72096 | 329 ft | 27 kts | 180° |
| 2026-05-07 20:47 | 41.25301 | 28.72167 | 330 ft | 26 kts | 137° |
| 2026-05-07 20:48 | 41.25244 | 28.72381 | 333 ft | 24 kts | 88° |
| 2026-05-07 20:48 | 41.25246 | 28.72598 | 333 ft | 23 kts | 89° |
| 2026-05-07 20:48 | 41.25249 | 28.72807 | 333 ft | 22 kts | 87° |
| 2026-05-07 20:48 | 41.25252 | 28.73009 | 333 ft | 22 kts | 89° |
| 2026-05-07 20:49 | 41.25255 | 28.73180 | 333 ft | 14 kts | 89° |
| 2026-05-07 20:49 | 41.25301 | 28.73258 | 333 ft | 13 kts | 6° |
| 2026-05-07 20:49 | 41.25421 | 28.73256 | 328 ft | 24 kts | 359° |
| 2026-05-07 20:49 | 41.25627 | 28.73252 | 329 ft | 35 kts | 359° |
| 2026-05-07 20:50 | 41.25871 | 28.73244 | 329 ft | 35 kts | 360° |
| 2026-05-07 20:50 | 41.26105 | 28.73239 | 332 ft | 32 kts | 358° |
| 2026-05-07 20:50 | 41.26323 | 28.73233 | 333 ft | 30 kts | 0° |
| 2026-05-07 20:50 | 41.26527 | 28.73231 | 332 ft | 28 kts | 359° |
| 2026-05-07 20:51 | 41.26711 | 28.73226 | 329 ft | 24 kts | 359° |
| 2026-05-07 20:51 | 41.26867 | 28.73220 | 329 ft | 20 kts | 356° |
| 2026-05-07 20:51 | 41.26954 | 28.73263 | 330 ft | 14 kts | 73° |
| 2026-05-07 20:51 | 41.26958 | 28.73412 | 332 ft | 18 kts | 89° |
| 2026-05-07 20:52 | 41.26960 | 28.73576 | 333 ft | 17 kts | 90° |
| 2026-05-07 20:52 | 41.26962 | 28.73728 | 333 ft | 16 kts | 89° |
| 2026-05-07 20:52 | 41.26964 | 28.73875 | 333 ft | 16 kts | 89° |
| 2026-05-07 20:52 | 41.26958 | 28.73988 | 329 ft | 10 kts | 117° |
| 2026-05-07 20:53 | 41.26896 | 28.74016 | 332 ft | 10 kts | 178° |
| 2026-05-07 20:53 | 41.26824 | 28.74019 | 332 ft | 12 kts | 179° |
| 2026-05-07 20:53 | 41.26734 | 28.74020 | 332 ft | 13 kts | 179° |
| 2026-05-07 20:53 | 41.26649 | 28.74022 | 332 ft | 12 kts | 179° |
| 2026-05-07 20:54 | 41.26572 | 28.74023 | 331 ft | 9 kts | 179° |
| 2026-05-07 20:54 | 41.26509 | 28.74025 | 330 ft | 5 kts | 179° |
| 2026-05-07 20:54 | 41.26507 | 28.74025 | 330 ft | 0 kts | 178° |
| 2026-05-07 20:55 | 41.26506 | 28.74025 | 330 ft | 1 kts | 178° |
| 2026-05-07 20:55 | 41.26482 | 28.74026 | 332 ft | 6 kts | 178° |
| 2026-05-07 20:55 | 41.26438 | 28.74023 | 333 ft | 6 kts | 195° |
| 2026-05-07 20:55 | 41.26404 | 28.74046 | 333 ft | 6 kts | 115° |
| 2026-05-07 20:56 | 41.26390 | 28.74095 | 331 ft | 5 kts | 111° |
| 2026-05-07 20:56 | 41.26382 | 28.74121 | 329 ft | 1 kts | 111° |
| 2026-05-07 20:56 | 41.26382 | 28.74122 | 330 ft | 0 kts | 111° |